<?xml version="1.0" encoding="UTF-8" standalone="no" ?>
<gpx xmlns="http://www.topografix.com/GPX/1/1" xmlns:xsi="http://www.w3.org/2001/XMLSchema-instance" xsi:schemaLocation="http://www.topografix.com/GPX/1/1 http://www.topografix.com/GPX/1/1/gpx.xsd" version="1.1" creator="VisuGPX - https://www.visugpx.com">
  <metadata>
    <name>Sentier des vignerons Puyloubier</name>
    <desc><![CDATA[9 km, 120 m]]></desc>
  </metadata>
  <wpt lat="43.52448" lon="5.67186">
    <ele>340</ele>
    <name><![CDATA[PK cave]]></name>
  </wpt>
  <wpt lat="43.52178" lon="5.65955">
    <ele>357</ele>
    <name><![CDATA[vue sur la Torque Sainte-Victoire]]></name>
  </wpt>
  <wpt lat="43.5191" lon="5.67251">
    <ele>310</ele>
    <name><![CDATA[vers oratoire St-Roch]]></name>
  </wpt>
  <wpt lat="43.51807" lon="5.67189">
    <ele>313</ele>
    <name><![CDATA[A Cinsault]]></name>
  </wpt>
  <wpt lat="43.51491" lon="5.67932">
    <ele>291.06</ele>
    <name><![CDATA[Vigilance !]]></name>
  </wpt>
  <wpt lat="43.51765" lon="5.68698">
    <ele>300</ele>
    <name><![CDATA[cabanon du Defens B Syrah]]></name>
  </wpt>
  <wpt lat="43.51947" lon="5.68474">
    <ele>312</ele>
    <name><![CDATA[Vigilance !]]></name>
  </wpt>
  <wpt lat="43.52365" lon="5.69867">
    <ele>340</ele>
    <name><![CDATA[Oratoire. Vers musée, restaurant, pique-nique]]></name>
  </wpt>
  <wpt lat="43.52721" lon="5.69056">
    <ele>363</ele>
    <name><![CDATA[D Grenache]]></name>
  </wpt>
  <wpt lat="43.52667" lon="5.68787">
    <ele>354</ele>
    <name><![CDATA[monument Légion]]></name>
  </wpt>
  <wpt lat="43.52625" lon="5.6751">
    <ele>368</ele>
    <name><![CDATA[Eglise Sainte-Marie]]></name>
  </wpt>
  <wpt lat="43.52522" lon="5.67203">
    <ele>347</ele>
    <name><![CDATA[lavoir communal]]></name>
  </wpt>
  <wpt lat="43.5196" lon="5.66071">
    <ele>344</ele>
    <name><![CDATA[variante vers stèle Ph. Noclercq]]></name>
  </wpt>
  <wpt lat="43.52453" lon="5.69421">
    <ele>338</ele>
    <name><![CDATA[Vigilance !]]></name>
  </wpt>
  <trk>
    <name><![CDATA[steleNoclercq]]></name>
    <trkseg>
      <trkpt lat="43.52448" lon="5.67186">
        <ele>340</ele>
        <time>2022-01-01T12:22:08Z</time>
      </trkpt>
      <trkpt lat="43.52455" lon="5.67153">
        <ele>341</ele>
        <time>2022-01-01T12:23:54Z</time>
      </trkpt>
      <trkpt lat="43.52459" lon="5.67125">
        <ele>342</ele>
        <time>2022-01-01T12:25:30Z</time>
      </trkpt>
      <trkpt lat="43.5245" lon="5.67096">
        <ele>343</ele>
        <time>2022-01-01T12:25:48Z</time>
      </trkpt>
      <trkpt lat="43.52446" lon="5.67065">
        <ele>344</ele>
        <time>2022-01-01T12:26:04Z</time>
      </trkpt>
      <trkpt lat="43.52436" lon="5.67036">
        <ele>344</ele>
        <time>2022-01-01T12:26:25Z</time>
      </trkpt>
      <trkpt lat="43.52426" lon="5.67008">
        <ele>344</ele>
        <time>2022-01-01T12:26:43Z</time>
      </trkpt>
      <trkpt lat="43.52416" lon="5.6698">
        <ele>346</ele>
        <time>2022-01-01T12:27:02Z</time>
      </trkpt>
      <trkpt lat="43.52413" lon="5.66949">
        <ele>349</ele>
        <time>2022-01-01T12:27:18Z</time>
      </trkpt>
      <trkpt lat="43.52406" lon="5.66919">
        <ele>350</ele>
        <time>2022-01-01T12:27:39Z</time>
      </trkpt>
      <trkpt lat="43.52405" lon="5.66888">
        <ele>351</ele>
        <time>2022-01-01T12:27:57Z</time>
      </trkpt>
      <trkpt lat="43.52408" lon="5.66857">
        <ele>354</ele>
        <time>2022-01-01T12:28:14Z</time>
      </trkpt>
      <trkpt lat="43.52408" lon="5.66826">
        <ele>355</ele>
        <time>2022-01-01T12:28:33Z</time>
      </trkpt>
      <trkpt lat="43.52405" lon="5.66795">
        <ele>355</ele>
        <time>2022-01-01T12:28:51Z</time>
      </trkpt>
      <trkpt lat="43.52406" lon="5.66764">
        <ele>355</ele>
        <time>2022-01-01T12:29:10Z</time>
      </trkpt>
      <trkpt lat="43.52408" lon="5.66733">
        <ele>356</ele>
        <time>2022-01-01T12:29:30Z</time>
      </trkpt>
      <trkpt lat="43.52407" lon="5.66701">
        <ele>356</ele>
        <time>2022-01-01T12:29:48Z</time>
      </trkpt>
      <trkpt lat="43.5241" lon="5.6667">
        <ele>356</ele>
        <time>2022-01-01T12:30:05Z</time>
      </trkpt>
      <trkpt lat="43.5241" lon="5.66637">
        <ele>356</ele>
        <time>2022-01-01T12:30:24Z</time>
      </trkpt>
      <trkpt lat="43.5241" lon="5.66606">
        <ele>355</ele>
        <time>2022-01-01T12:30:44Z</time>
      </trkpt>
      <trkpt lat="43.52414" lon="5.66575">
        <ele>356</ele>
        <time>2022-01-01T12:31:01Z</time>
      </trkpt>
      <trkpt lat="43.52415" lon="5.66543">
        <ele>357</ele>
        <time>2022-01-01T12:31:16Z</time>
      </trkpt>
      <trkpt lat="43.52416" lon="5.66511">
        <ele>358</ele>
        <time>2022-01-01T12:31:51Z</time>
      </trkpt>
      <trkpt lat="43.52421" lon="5.66481">
        <ele>360</ele>
        <time>2022-01-01T12:32:14Z</time>
      </trkpt>
      <trkpt lat="43.52423" lon="5.66448">
        <ele>361</ele>
        <time>2022-01-01T12:32:33Z</time>
      </trkpt>
      <trkpt lat="43.52411" lon="5.6642">
        <ele>361</ele>
        <time>2022-01-01T12:32:52Z</time>
      </trkpt>
      <trkpt lat="43.52398" lon="5.66394">
        <ele>360</ele>
        <time>2022-01-01T12:33:10Z</time>
      </trkpt>
      <trkpt lat="43.5239" lon="5.66365">
        <ele>362</ele>
        <time>2022-01-01T12:33:28Z</time>
      </trkpt>
      <trkpt lat="43.52374" lon="5.66342">
        <ele>362</ele>
        <time>2022-01-01T12:33:46Z</time>
      </trkpt>
      <trkpt lat="43.52355" lon="5.66323">
        <ele>361</ele>
        <time>2022-01-01T12:34:05Z</time>
      </trkpt>
      <trkpt lat="43.52339" lon="5.66302">
        <ele>361</ele>
        <time>2022-01-01T12:34:23Z</time>
      </trkpt>
      <trkpt lat="43.52326" lon="5.66276">
        <ele>361</ele>
        <time>2022-01-01T12:34:41Z</time>
      </trkpt>
      <trkpt lat="43.52314" lon="5.66249">
        <ele>361</ele>
        <time>2022-01-01T12:34:59Z</time>
      </trkpt>
      <trkpt lat="43.52305" lon="5.66221">
        <ele>360</ele>
        <time>2022-01-01T12:35:16Z</time>
      </trkpt>
      <trkpt lat="43.52292" lon="5.66194">
        <ele>359</ele>
        <time>2022-01-01T12:35:33Z</time>
      </trkpt>
      <trkpt lat="43.52278" lon="5.66169">
        <ele>358</ele>
        <time>2022-01-01T12:35:52Z</time>
      </trkpt>
      <trkpt lat="43.52265" lon="5.66142">
        <ele>358</ele>
        <time>2022-01-01T12:36:12Z</time>
      </trkpt>
      <trkpt lat="43.52253" lon="5.66114">
        <ele>358</ele>
        <time>2022-01-01T12:36:30Z</time>
      </trkpt>
      <trkpt lat="43.52241" lon="5.66086">
        <ele>358</ele>
        <time>2022-01-01T12:36:48Z</time>
      </trkpt>
      <trkpt lat="43.52229" lon="5.66059">
        <ele>358</ele>
        <time>2022-01-01T12:37:07Z</time>
      </trkpt>
      <trkpt lat="43.52216" lon="5.66032">
        <ele>358</ele>
        <time>2022-01-01T12:37:25Z</time>
      </trkpt>
      <trkpt lat="43.52204" lon="5.66005">
        <ele>358</ele>
        <time>2022-01-01T12:37:43Z</time>
      </trkpt>
      <trkpt lat="43.52194" lon="5.65976">
        <ele>358</ele>
        <time>2022-01-01T12:43:19Z</time>
      </trkpt>
      <trkpt lat="43.52178" lon="5.65955">
        <ele>357</ele>
        <time>2022-01-01T12:43:45Z</time>
      </trkpt>
      <trkpt lat="43.52155" lon="5.6595">
        <ele>355</ele>
        <time>2022-01-01T12:44:05Z</time>
      </trkpt>
      <trkpt lat="43.52133" lon="5.6596">
        <ele>353</ele>
        <time>2022-01-01T12:44:26Z</time>
      </trkpt>
      <trkpt lat="43.5211" lon="5.65967">
        <ele>352</ele>
        <time>2022-01-01T12:44:48Z</time>
      </trkpt>
      <trkpt lat="43.52088" lon="5.65976">
        <ele>350</ele>
        <time>2022-01-01T12:45:09Z</time>
      </trkpt>
      <trkpt lat="43.52065" lon="5.65978">
        <ele>349</ele>
        <time>2022-01-01T12:45:29Z</time>
      </trkpt>
      <trkpt lat="43.52043" lon="5.65976">
        <ele>347</ele>
        <time>2022-01-01T12:45:50Z</time>
      </trkpt>
      <trkpt lat="43.52019" lon="5.65981">
        <ele>346</ele>
        <time>2022-01-01T12:46:09Z</time>
      </trkpt>
      <trkpt lat="43.51999" lon="5.65995">
        <ele>345</ele>
        <time>2022-01-01T12:46:30Z</time>
      </trkpt>
      <trkpt lat="43.51983" lon="5.66017">
        <ele>344</ele>
        <time>2022-01-01T12:46:48Z</time>
      </trkpt>
      <trkpt lat="43.51973" lon="5.66045">
        <ele>344</ele>
        <time>2022-01-01T12:47:08Z</time>
      </trkpt>
      <trkpt lat="43.5196" lon="5.66071">
        <ele>344</ele>
        <time>2022-01-01T12:47:48Z</time>
      </trkpt>
      <trkpt lat="43.51956" lon="5.66102">
        <ele>344</ele>
        <time>2022-01-01T12:48:08Z</time>
      </trkpt>
      <trkpt lat="43.51959" lon="5.66133">
        <ele>344</ele>
        <time>2022-01-01T12:48:27Z</time>
      </trkpt>
      <trkpt lat="43.51958" lon="5.66164">
        <ele>343</ele>
        <time>2022-01-01T12:48:48Z</time>
      </trkpt>
      <trkpt lat="43.51952" lon="5.66195">
        <ele>342</ele>
        <time>2022-01-01T12:49:07Z</time>
      </trkpt>
      <trkpt lat="43.51959" lon="5.66225">
        <ele>341</ele>
        <time>2022-01-01T12:49:25Z</time>
      </trkpt>
      <trkpt lat="43.5197" lon="5.66253">
        <ele>340</ele>
        <time>2022-01-01T12:49:45Z</time>
      </trkpt>
      <trkpt lat="43.51982" lon="5.66281">
        <ele>340</ele>
        <time>2022-01-01T12:50:06Z</time>
      </trkpt>
      <trkpt lat="43.5198" lon="5.66313">
        <ele>340</ele>
        <time>2022-01-01T12:50:28Z</time>
      </trkpt>
      <trkpt lat="43.51968" lon="5.66339">
        <ele>339</ele>
        <time>2022-01-01T12:50:59Z</time>
      </trkpt>
      <trkpt lat="43.51965" lon="5.6637">
        <ele>339</ele>
        <time>2022-01-01T12:51:25Z</time>
      </trkpt>
      <trkpt lat="43.5196" lon="5.66402">
        <ele>339</ele>
        <time>2022-01-01T12:51:43Z</time>
      </trkpt>
      <trkpt lat="43.51964" lon="5.66433">
        <ele>339</ele>
        <time>2022-01-01T12:52:01Z</time>
      </trkpt>
      <trkpt lat="43.51956" lon="5.66463">
        <ele>339</ele>
        <time>2022-01-01T12:55:59Z</time>
      </trkpt>
      <trkpt lat="43.51966" lon="5.66492">
        <ele>340</ele>
        <time>2022-01-01T12:56:19Z</time>
      </trkpt>
      <trkpt lat="43.51976" lon="5.6652">
        <ele>340</ele>
        <time>2022-01-01T12:56:38Z</time>
      </trkpt>
      <trkpt lat="43.51987" lon="5.66548">
        <ele>339</ele>
        <time>2022-01-01T12:56:54Z</time>
      </trkpt>
      <trkpt lat="43.52001" lon="5.66573">
        <ele>339</ele>
        <time>2022-01-01T12:57:11Z</time>
      </trkpt>
      <trkpt lat="43.52023" lon="5.66585">
        <ele>339</ele>
        <time>2022-01-01T12:57:31Z</time>
      </trkpt>
      <trkpt lat="43.52042" lon="5.66601">
        <ele>339</ele>
        <time>2022-01-01T12:57:50Z</time>
      </trkpt>
      <trkpt lat="43.5206" lon="5.66622">
        <ele>340</ele>
        <time>2022-01-01T12:58:10Z</time>
      </trkpt>
      <trkpt lat="43.52076" lon="5.66646">
        <ele>339</ele>
        <time>2022-01-01T12:58:28Z</time>
      </trkpt>
      <trkpt lat="43.5209" lon="5.6667">
        <ele>338</ele>
        <time>2022-01-01T12:58:44Z</time>
      </trkpt>
      <trkpt lat="43.52105" lon="5.66694">
        <ele>337</ele>
        <time>2022-01-01T12:59:01Z</time>
      </trkpt>
      <trkpt lat="43.52125" lon="5.66713">
        <ele>336</ele>
        <time>2022-01-01T12:59:20Z</time>
      </trkpt>
      <trkpt lat="43.52145" lon="5.66727">
        <ele>335</ele>
        <time>2022-01-01T12:59:35Z</time>
      </trkpt>
      <trkpt lat="43.52162" lon="5.66748">
        <ele>333</ele>
        <time>2022-01-01T12:59:52Z</time>
      </trkpt>
      <trkpt lat="43.52168" lon="5.66779">
        <ele>331</ele>
        <time>2022-01-01T13:00:12Z</time>
      </trkpt>
      <trkpt lat="43.52168" lon="5.6681">
        <ele>328</ele>
        <time>2022-01-01T13:00:36Z</time>
      </trkpt>
      <trkpt lat="43.52162" lon="5.6684">
        <ele>326</ele>
        <time>2022-01-01T13:00:55Z</time>
      </trkpt>
      <trkpt lat="43.52153" lon="5.6687">
        <ele>324</ele>
        <time>2022-01-01T13:01:14Z</time>
      </trkpt>
      <trkpt lat="43.5213" lon="5.66876">
        <ele>322</ele>
        <time>2022-01-01T13:01:36Z</time>
      </trkpt>
      <trkpt lat="43.52109" lon="5.66863">
        <ele>321</ele>
        <time>2022-01-01T13:01:54Z</time>
      </trkpt>
      <trkpt lat="43.52087" lon="5.66853">
        <ele>321</ele>
        <time>2022-01-01T13:02:12Z</time>
      </trkpt>
      <trkpt lat="43.52065" lon="5.66865">
        <ele>319</ele>
        <time>2022-01-01T13:02:35Z</time>
      </trkpt>
      <trkpt lat="43.52052" lon="5.66891">
        <ele>318</ele>
        <time>2022-01-01T13:02:55Z</time>
      </trkpt>
      <trkpt lat="43.52042" lon="5.6692">
        <ele>318</ele>
        <time>2022-01-01T13:03:14Z</time>
      </trkpt>
      <trkpt lat="43.52034" lon="5.6695">
        <ele>318</ele>
        <time>2022-01-01T13:03:35Z</time>
      </trkpt>
      <trkpt lat="43.52023" lon="5.66979">
        <ele>317</ele>
        <time>2022-01-01T13:03:55Z</time>
      </trkpt>
      <trkpt lat="43.52014" lon="5.67008">
        <ele>317</ele>
        <time>2022-01-01T13:04:11Z</time>
      </trkpt>
      <trkpt lat="43.52001" lon="5.67035">
        <ele>316</ele>
        <time>2022-01-01T13:04:30Z</time>
      </trkpt>
      <trkpt lat="43.51991" lon="5.67063">
        <ele>316</ele>
        <time>2022-01-01T13:04:47Z</time>
      </trkpt>
      <trkpt lat="43.51982" lon="5.67093">
        <ele>315</ele>
        <time>2022-01-01T13:05:04Z</time>
      </trkpt>
      <trkpt lat="43.5197" lon="5.67121">
        <ele>314</ele>
        <time>2022-01-01T13:05:22Z</time>
      </trkpt>
      <trkpt lat="43.5196" lon="5.67149">
        <ele>313</ele>
        <time>2022-01-01T13:05:38Z</time>
      </trkpt>
      <trkpt lat="43.5195" lon="5.67177">
        <ele>313</ele>
        <time>2022-01-01T13:05:57Z</time>
      </trkpt>
      <trkpt lat="43.51939" lon="5.67206">
        <ele>312</ele>
        <time>2022-01-01T13:06:15Z</time>
      </trkpt>
      <trkpt lat="43.51929" lon="5.67234">
        <ele>311</ele>
        <time>2022-01-01T13:06:34Z</time>
      </trkpt>
      <trkpt lat="43.5191" lon="5.67251">
        <ele>310</ele>
        <time>2022-01-01T13:07:01Z</time>
      </trkpt>
      <trkpt lat="43.51889" lon="5.67241">
        <ele>310</ele>
        <time>2022-01-01T13:07:27Z</time>
      </trkpt>
      <trkpt lat="43.51869" lon="5.67225">
        <ele>310</ele>
        <time>2022-01-01T13:07:51Z</time>
      </trkpt>
      <trkpt lat="43.5185" lon="5.67208">
        <ele>311</ele>
        <time>2022-01-01T13:08:09Z</time>
      </trkpt>
      <trkpt lat="43.5183" lon="5.67193">
        <ele>312</ele>
        <time>2022-01-01T13:08:27Z</time>
      </trkpt>
      <trkpt lat="43.51807" lon="5.67189">
        <ele>313</ele>
        <time>2022-01-01T13:08:49Z</time>
      </trkpt>
      <trkpt lat="43.51793" lon="5.67215">
        <ele>312</ele>
        <time>2022-01-01T13:09:03Z</time>
      </trkpt>
      <trkpt lat="43.51779" lon="5.67239">
        <ele>311</ele>
        <time>2022-01-01T13:09:23Z</time>
      </trkpt>
      <trkpt lat="43.51781" lon="5.67271">
        <ele>310</ele>
        <time>2022-01-01T13:09:39Z</time>
      </trkpt>
      <trkpt lat="43.5177" lon="5.6729">
        <ele>310</ele>
        <time>2022-01-01T13:12:22Z</time>
      </trkpt>
      <trkpt lat="43.51759" lon="5.67318">
        <ele>309</ele>
        <time>2022-01-01T13:12:40Z</time>
      </trkpt>
      <trkpt lat="43.51754" lon="5.67348">
        <ele>308</ele>
        <time>2022-01-01T13:12:58Z</time>
      </trkpt>
      <trkpt lat="43.51743" lon="5.67378">
        <ele>307</ele>
        <time>2022-01-01T13:13:14Z</time>
      </trkpt>
      <trkpt lat="43.51733" lon="5.67407">
        <ele>306</ele>
        <time>2022-01-01T13:13:31Z</time>
      </trkpt>
      <trkpt lat="43.51726" lon="5.67437">
        <ele>305</ele>
        <time>2022-01-01T13:13:50Z</time>
      </trkpt>
      <trkpt lat="43.51713" lon="5.67463">
        <ele>304</ele>
        <time>2022-01-01T13:14:08Z</time>
      </trkpt>
      <trkpt lat="43.51701" lon="5.67491">
        <ele>303</ele>
        <time>2022-01-01T13:14:26Z</time>
      </trkpt>
      <trkpt lat="43.5169" lon="5.67518">
        <ele>301</ele>
        <time>2022-01-01T13:14:45Z</time>
      </trkpt>
      <trkpt lat="43.51678" lon="5.67546">
        <ele>301</ele>
        <time>2022-01-01T13:15:05Z</time>
      </trkpt>
      <trkpt lat="43.51669" lon="5.67575">
        <ele>300</ele>
        <time>2022-01-01T13:15:24Z</time>
      </trkpt>
      <trkpt lat="43.51656" lon="5.67601">
        <ele>299</ele>
        <time>2022-01-01T13:15:44Z</time>
      </trkpt>
      <trkpt lat="43.51641" lon="5.67625">
        <ele>299</ele>
        <time>2022-01-01T13:16:04Z</time>
      </trkpt>
      <trkpt lat="43.51626" lon="5.6765">
        <ele>299</ele>
        <time>2022-01-01T13:16:23Z</time>
      </trkpt>
      <trkpt lat="43.5161" lon="5.67673">
        <ele>298</ele>
        <time>2022-01-01T13:16:44Z</time>
      </trkpt>
      <trkpt lat="43.51594" lon="5.67695">
        <ele>296</ele>
        <time>2022-01-01T13:17:04Z</time>
      </trkpt>
      <trkpt lat="43.51578" lon="5.67718">
        <ele>295</ele>
        <time>2022-01-01T13:17:21Z</time>
      </trkpt>
      <trkpt lat="43.51561" lon="5.6774">
        <ele>294</ele>
        <time>2022-01-01T13:17:38Z</time>
      </trkpt>
      <trkpt lat="43.51549" lon="5.67768">
        <ele>292</ele>
        <time>2022-01-01T13:17:55Z</time>
      </trkpt>
      <trkpt lat="43.51538" lon="5.67797">
        <ele>292</ele>
        <time>2022-01-01T13:18:12Z</time>
      </trkpt>
      <trkpt lat="43.51527" lon="5.67825">
        <ele>292</ele>
        <time>2022-01-01T13:18:27Z</time>
      </trkpt>
      <trkpt lat="43.51515" lon="5.6785">
        <ele>292</ele>
        <time>2022-01-01T13:18:49Z</time>
      </trkpt>
      <trkpt lat="43.51502" lon="5.67876">
        <ele>291</ele>
        <time>2022-01-01T13:19:06Z</time>
      </trkpt>
      <trkpt lat="43.5149" lon="5.67903">
        <ele>291</ele>
        <time>2022-01-01T13:19:23Z</time>
      </trkpt>
      <trkpt lat="43.51491" lon="5.67932">
        <ele>291.062775</ele>
        <time>2022-01-01T13:19:43Z</time>
      </trkpt>
      <trkpt lat="43.51514" lon="5.67929">
        <ele>291.181824</ele>
        <time>2022-01-01T13:20:03Z</time>
      </trkpt>
      <trkpt lat="43.51515" lon="5.67946">
        <ele>291.294983</ele>
      </trkpt>
      <trkpt lat="43.51528" lon="5.67947">
        <ele>291.539124</ele>
        <time>2022-01-01T13:20:49Z</time>
      </trkpt>
      <trkpt lat="43.51564" lon="5.67974">
        <ele>293</ele>
        <time>2022-01-01T13:21:08Z</time>
      </trkpt>
      <trkpt lat="43.51584" lon="5.67989">
        <ele>293</ele>
        <time>2022-01-01T13:21:26Z</time>
      </trkpt>
      <trkpt lat="43.51604" lon="5.68003">
        <ele>294</ele>
        <time>2022-01-01T13:21:47Z</time>
      </trkpt>
      <trkpt lat="43.51626" lon="5.68017">
        <ele>296</ele>
        <time>2022-01-01T13:22:06Z</time>
      </trkpt>
      <trkpt lat="43.51646" lon="5.68033">
        <ele>297</ele>
        <time>2022-01-01T13:22:26Z</time>
      </trkpt>
      <trkpt lat="43.51666" lon="5.68048">
        <ele>300</ele>
        <time>2022-01-01T13:22:44Z</time>
      </trkpt>
      <trkpt lat="43.51687" lon="5.68061">
        <ele>301</ele>
        <time>2022-01-01T13:23:05Z</time>
      </trkpt>
      <trkpt lat="43.51675" lon="5.68089">
        <ele>303</ele>
        <time>2022-01-01T13:23:28Z</time>
      </trkpt>
      <trkpt lat="43.51659" lon="5.68112">
        <ele>303</ele>
        <time>2022-01-01T13:23:49Z</time>
      </trkpt>
      <trkpt lat="43.51646" lon="5.68139">
        <ele>303</ele>
        <time>2022-01-01T13:24:10Z</time>
      </trkpt>
      <trkpt lat="43.51638" lon="5.68168">
        <ele>304</ele>
        <time>2022-01-01T13:24:37Z</time>
      </trkpt>
      <trkpt lat="43.51629" lon="5.68198">
        <ele>303</ele>
        <time>2022-01-01T13:24:57Z</time>
      </trkpt>
      <trkpt lat="43.51617" lon="5.68225">
        <ele>303</ele>
        <time>2022-01-01T13:25:14Z</time>
      </trkpt>
      <trkpt lat="43.51609" lon="5.68254">
        <ele>302</ele>
        <time>2022-01-01T13:25:33Z</time>
      </trkpt>
      <trkpt lat="43.51623" lon="5.68279">
        <ele>303</ele>
        <time>2022-01-01T13:25:53Z</time>
      </trkpt>
      <trkpt lat="43.51644" lon="5.68292">
        <ele>303</ele>
        <time>2022-01-01T13:26:09Z</time>
      </trkpt>
      <trkpt lat="43.51642" lon="5.68323">
        <ele>302</ele>
        <time>2022-01-01T13:26:28Z</time>
      </trkpt>
      <trkpt lat="43.51629" lon="5.68348">
        <ele>301</ele>
        <time>2022-01-01T13:26:48Z</time>
      </trkpt>
      <trkpt lat="43.51626" lon="5.6838">
        <ele>300</ele>
        <time>2022-01-01T13:27:04Z</time>
      </trkpt>
      <trkpt lat="43.51617" lon="5.68409">
        <ele>300</ele>
        <time>2022-01-01T13:27:20Z</time>
      </trkpt>
      <trkpt lat="43.51611" lon="5.6844">
        <ele>299</ele>
        <time>2022-01-01T13:27:37Z</time>
      </trkpt>
      <trkpt lat="43.51599" lon="5.68467">
        <ele>298</ele>
        <time>2022-01-01T13:27:56Z</time>
      </trkpt>
      <trkpt lat="43.51589" lon="5.68495">
        <ele>297</ele>
        <time>2022-01-01T13:28:14Z</time>
      </trkpt>
      <trkpt lat="43.51574" lon="5.68521">
        <ele>296</ele>
        <time>2022-01-01T13:28:31Z</time>
      </trkpt>
      <trkpt lat="43.51567" lon="5.68551">
        <ele>295</ele>
        <time>2022-01-01T13:28:47Z</time>
      </trkpt>
      <trkpt lat="43.51574" lon="5.68581">
        <ele>295</ele>
        <time>2022-01-01T13:29:08Z</time>
      </trkpt>
      <trkpt lat="43.51582" lon="5.6861">
        <ele>295</ele>
        <time>2022-01-01T13:29:26Z</time>
      </trkpt>
      <trkpt lat="43.5159" lon="5.68639">
        <ele>295</ele>
        <time>2022-01-01T13:29:40Z</time>
      </trkpt>
      <trkpt lat="43.51601" lon="5.68669">
        <ele>295</ele>
        <time>2022-01-01T13:29:56Z</time>
      </trkpt>
      <trkpt lat="43.51608" lon="5.68699">
        <ele>295</ele>
        <time>2022-01-01T13:30:13Z</time>
      </trkpt>
      <trkpt lat="43.51617" lon="5.6873">
        <ele>295</ele>
        <time>2022-01-01T13:30:34Z</time>
      </trkpt>
      <trkpt lat="43.51636" lon="5.68746">
        <ele>296</ele>
        <time>2022-01-01T13:30:53Z</time>
      </trkpt>
      <trkpt lat="43.5166" lon="5.6875">
        <ele>296</ele>
        <time>2022-01-01T13:31:14Z</time>
      </trkpt>
      <trkpt lat="43.51682" lon="5.68751">
        <ele>297</ele>
        <time>2022-01-01T13:31:34Z</time>
      </trkpt>
      <trkpt lat="43.51704" lon="5.68744">
        <ele>298</ele>
        <time>2022-01-01T13:31:52Z</time>
      </trkpt>
      <trkpt lat="43.51725" lon="5.6873">
        <ele>298</ele>
        <time>2022-01-01T13:32:13Z</time>
      </trkpt>
      <trkpt lat="43.51745" lon="5.68712">
        <ele>299</ele>
        <time>2022-01-01T13:32:30Z</time>
      </trkpt>
      <trkpt lat="43.51765" lon="5.68698">
        <ele>300</ele>
        <time>2022-01-01T13:32:51Z</time>
      </trkpt>
      <trkpt lat="43.5178" lon="5.68675">
        <ele>301</ele>
        <time>2022-01-01T13:34:26Z</time>
      </trkpt>
      <trkpt lat="43.518" lon="5.68658">
        <ele>302</ele>
        <time>2022-01-01T13:34:49Z</time>
      </trkpt>
      <trkpt lat="43.51819" lon="5.6864">
        <ele>302</ele>
        <time>2022-01-01T13:35:08Z</time>
      </trkpt>
      <trkpt lat="43.51835" lon="5.68617">
        <ele>303</ele>
        <time>2022-01-01T13:35:26Z</time>
      </trkpt>
      <trkpt lat="43.51847" lon="5.6859">
        <ele>305</ele>
        <time>2022-01-01T13:35:54Z</time>
      </trkpt>
      <trkpt lat="43.51859" lon="5.68574">
        <ele>306</ele>
        <time>2022-01-01T13:36:11Z</time>
      </trkpt>
      <trkpt lat="43.51866" lon="5.68543">
        <ele>307</ele>
        <time>2022-01-01T13:36:30Z</time>
      </trkpt>
      <trkpt lat="43.5189" lon="5.68522">
        <ele>308</ele>
        <time>2022-01-01T13:38:00Z</time>
      </trkpt>
      <trkpt lat="43.51922" lon="5.68501">
        <ele>310</ele>
        <time>2022-01-01T13:38:24Z</time>
      </trkpt>
      <trkpt lat="43.51947" lon="5.68474">
        <ele>312</ele>
        <time>2022-01-01T13:38:43Z</time>
      </trkpt>
      <trkpt lat="43.51968" lon="5.68486">
        <ele>313</ele>
        <time>2022-01-01T13:39:03Z</time>
      </trkpt>
      <trkpt lat="43.51984" lon="5.68497">
        <ele>313</ele>
        <time>2022-01-01T13:39:26Z</time>
      </trkpt>
      <trkpt lat="43.51993" lon="5.68511">
        <ele>314</ele>
        <time>2022-01-01T13:39:53Z</time>
      </trkpt>
      <trkpt lat="43.52007" lon="5.68521">
        <ele>314</ele>
        <time>2022-01-01T13:40:24Z</time>
      </trkpt>
      <trkpt lat="43.52021" lon="5.6853">
        <ele>315</ele>
        <time>2022-01-01T13:40:48Z</time>
      </trkpt>
      <trkpt lat="43.52042" lon="5.6853">
        <ele>316</ele>
        <time>2022-01-01T13:41:10Z</time>
      </trkpt>
      <trkpt lat="43.52049" lon="5.6856">
        <ele>316</ele>
        <time>2022-01-01T13:41:37Z</time>
      </trkpt>
      <trkpt lat="43.52069" lon="5.68577">
        <ele>316</ele>
        <time>2022-01-01T13:42:25Z</time>
      </trkpt>
      <trkpt lat="43.52085" lon="5.68556">
        <ele>317</ele>
        <time>2022-01-01T13:43:00Z</time>
      </trkpt>
      <trkpt lat="43.52087" lon="5.68524">
        <ele>317</ele>
        <time>2022-01-01T13:43:20Z</time>
      </trkpt>
      <trkpt lat="43.52108" lon="5.68512">
        <ele>318</ele>
        <time>2022-01-01T13:44:12Z</time>
      </trkpt>
      <trkpt lat="43.5213" lon="5.68516">
        <ele>320</ele>
        <time>2022-01-01T13:44:33Z</time>
      </trkpt>
      <trkpt lat="43.52143" lon="5.68489">
        <ele>321</ele>
        <time>2022-01-01T13:45:15Z</time>
      </trkpt>
      <trkpt lat="43.52165" lon="5.68479">
        <ele>323</ele>
        <time>2022-01-01T13:45:48Z</time>
      </trkpt>
      <trkpt lat="43.52188" lon="5.68477">
        <ele>326</ele>
        <time>2022-01-01T13:46:07Z</time>
      </trkpt>
      <trkpt lat="43.5221" lon="5.68472">
        <ele>329</ele>
        <time>2022-01-01T13:46:28Z</time>
      </trkpt>
      <trkpt lat="43.52233" lon="5.68476">
        <ele>332</ele>
        <time>2022-01-01T13:47:02Z</time>
      </trkpt>
      <trkpt lat="43.52255" lon="5.68482">
        <ele>335</ele>
        <time>2022-01-01T13:47:25Z</time>
      </trkpt>
      <trkpt lat="43.52262" lon="5.68513">
        <ele>336</ele>
        <time>2022-01-01T13:47:49Z</time>
      </trkpt>
      <trkpt lat="43.52254" lon="5.68542">
        <ele>334</ele>
        <time>2022-01-01T13:48:11Z</time>
      </trkpt>
      <trkpt lat="43.52246" lon="5.68572">
        <ele>331</ele>
        <time>2022-01-01T13:48:31Z</time>
      </trkpt>
      <trkpt lat="43.52241" lon="5.68603">
        <ele>330</ele>
        <time>2022-01-01T13:49:28Z</time>
      </trkpt>
      <trkpt lat="43.52227" lon="5.68628">
        <ele>328</ele>
        <time>2022-01-01T13:49:55Z</time>
      </trkpt>
      <trkpt lat="43.52242" lon="5.68652">
        <ele>329</ele>
        <time>2022-01-01T13:50:19Z</time>
      </trkpt>
      <trkpt lat="43.52262" lon="5.68667">
        <ele>330</ele>
        <time>2022-01-01T13:50:47Z</time>
      </trkpt>
      <trkpt lat="43.52282" lon="5.68686">
        <ele>331</ele>
        <time>2022-01-01T13:51:08Z</time>
      </trkpt>
      <trkpt lat="43.52302" lon="5.68701">
        <ele>332</ele>
        <time>2022-01-01T13:51:29Z</time>
      </trkpt>
      <trkpt lat="43.5232" lon="5.68721">
        <ele>333</ele>
        <time>2022-01-01T13:51:49Z</time>
      </trkpt>
      <trkpt lat="43.52336" lon="5.68743">
        <ele>334</ele>
        <time>2022-01-01T13:52:10Z</time>
      </trkpt>
      <trkpt lat="43.52348" lon="5.6877">
        <ele>335</ele>
        <time>2022-01-01T13:52:33Z</time>
      </trkpt>
      <trkpt lat="43.52359" lon="5.68798">
        <ele>335</ele>
        <time>2022-01-01T13:53:01Z</time>
      </trkpt>
      <trkpt lat="43.5237" lon="5.68825">
        <ele>336</ele>
        <time>2022-01-01T13:53:22Z</time>
      </trkpt>
      <trkpt lat="43.52378" lon="5.68855">
        <ele>336</ele>
        <time>2022-01-01T13:53:45Z</time>
      </trkpt>
      <trkpt lat="43.52384" lon="5.68886">
        <ele>337</ele>
        <time>2022-01-01T13:54:05Z</time>
      </trkpt>
      <trkpt lat="43.52388" lon="5.68918">
        <ele>339</ele>
        <time>2022-01-01T13:54:25Z</time>
      </trkpt>
      <trkpt lat="43.52388" lon="5.68949">
        <ele>341</ele>
        <time>2022-01-01T13:54:43Z</time>
      </trkpt>
      <trkpt lat="43.52391" lon="5.6898">
        <ele>343</ele>
        <time>2022-01-01T13:55:12Z</time>
      </trkpt>
      <trkpt lat="43.52397" lon="5.6901">
        <ele>345</ele>
        <time>2022-01-01T13:55:38Z</time>
      </trkpt>
      <trkpt lat="43.52389" lon="5.69039">
        <ele>346</ele>
        <time>2022-01-01T13:56:02Z</time>
      </trkpt>
      <trkpt lat="43.52389" lon="5.6907">
        <ele>346</ele>
        <time>2022-01-01T13:56:28Z</time>
      </trkpt>
      <trkpt lat="43.52386" lon="5.69102">
        <ele>345</ele>
        <time>2022-01-01T13:56:46Z</time>
      </trkpt>
      <trkpt lat="43.52382" lon="5.69133">
        <ele>343</ele>
        <time>2022-01-01T13:57:04Z</time>
      </trkpt>
      <trkpt lat="43.52377" lon="5.69164">
        <ele>341</ele>
        <time>2022-01-01T13:57:22Z</time>
      </trkpt>
      <trkpt lat="43.52375" lon="5.69195">
        <ele>339</ele>
        <time>2022-01-01T13:57:40Z</time>
      </trkpt>
      <trkpt lat="43.52366" lon="5.69224">
        <ele>337</ele>
        <time>2022-01-01T13:58:03Z</time>
      </trkpt>
      <trkpt lat="43.52359" lon="5.69254">
        <ele>335</ele>
        <time>2022-01-01T13:58:21Z</time>
      </trkpt>
      <trkpt lat="43.52379" lon="5.69271">
        <ele>335</ele>
        <time>2022-01-01T13:58:42Z</time>
      </trkpt>
      <trkpt lat="43.52401" lon="5.69281">
        <ele>336</ele>
        <time>2022-01-01T13:59:02Z</time>
      </trkpt>
      <trkpt lat="43.52421" lon="5.69296">
        <ele>336</ele>
        <time>2022-01-01T13:59:26Z</time>
      </trkpt>
      <trkpt lat="43.52414" lon="5.69326">
        <ele>335</ele>
        <time>2022-01-01T13:59:49Z</time>
      </trkpt>
      <trkpt lat="43.52409" lon="5.69356">
        <ele>335</ele>
        <time>2022-01-01T14:00:11Z</time>
      </trkpt>
      <trkpt lat="43.52406" lon="5.69387">
        <ele>335</ele>
        <time>2022-01-01T14:00:29Z</time>
      </trkpt>
      <trkpt lat="43.52407" lon="5.69419">
        <ele>335</ele>
        <time>2022-01-01T14:00:49Z</time>
      </trkpt>
      <trkpt lat="43.52431" lon="5.69418">
        <ele>336</ele>
        <time>2022-01-01T14:01:11Z</time>
      </trkpt>
      <trkpt lat="43.52453" lon="5.69421">
        <ele>338</ele>
        <time>2022-01-01T14:01:33Z</time>
      </trkpt>
      <trkpt lat="43.52457" lon="5.69452">
        <ele>338</ele>
        <time>2022-01-01T14:02:05Z</time>
      </trkpt>
      <trkpt lat="43.52441" lon="5.69477">
        <ele>338</ele>
        <time>2022-01-01T14:02:28Z</time>
      </trkpt>
      <trkpt lat="43.52432" lon="5.69505">
        <ele>337</ele>
        <time>2022-01-01T14:02:48Z</time>
      </trkpt>
      <trkpt lat="43.5242" lon="5.69532">
        <ele>337</ele>
        <time>2022-01-01T14:03:10Z</time>
      </trkpt>
      <trkpt lat="43.52398" lon="5.69543">
        <ele>336</ele>
        <time>2022-01-01T14:03:36Z</time>
      </trkpt>
      <trkpt lat="43.52379" lon="5.6956">
        <ele>335</ele>
        <time>2022-01-01T14:04:05Z</time>
      </trkpt>
      <trkpt lat="43.52377" lon="5.69591">
        <ele>336</ele>
        <time>2022-01-01T14:04:38Z</time>
      </trkpt>
      <trkpt lat="43.52386" lon="5.69587">
        <ele>337</ele>
        <time>2022-01-01T14:22:15Z</time>
      </trkpt>
      <trkpt lat="43.5238" lon="5.69618">
        <ele>338</ele>
        <time>2022-01-01T14:22:37Z</time>
      </trkpt>
      <trkpt lat="43.52379" lon="5.69649">
        <ele>338</ele>
        <time>2022-01-01T14:23:15Z</time>
      </trkpt>
      <trkpt lat="43.52376" lon="5.6968">
        <ele>339</ele>
        <time>2022-01-01T14:23:34Z</time>
      </trkpt>
      <trkpt lat="43.52374" lon="5.69712">
        <ele>340</ele>
        <time>2022-01-01T14:24:09Z</time>
      </trkpt>
      <trkpt lat="43.52371" lon="5.69743">
        <ele>340</ele>
        <time>2022-01-01T14:24:35Z</time>
      </trkpt>
      <trkpt lat="43.52363" lon="5.69772">
        <ele>339</ele>
        <time>2022-01-01T14:24:55Z</time>
      </trkpt>
      <trkpt lat="43.52361" lon="5.69804">
        <ele>339</ele>
        <time>2022-01-01T14:25:12Z</time>
      </trkpt>
      <trkpt lat="43.52361" lon="5.69835">
        <ele>339</ele>
        <time>2022-01-01T14:25:30Z</time>
      </trkpt>
      <trkpt lat="43.52365" lon="5.69867">
        <ele>340</ele>
        <time>2022-01-01T14:25:50Z</time>
      </trkpt>
      <trkpt lat="43.52384" lon="5.69884">
        <ele>342</ele>
        <time>2022-01-01T14:26:15Z</time>
      </trkpt>
      <trkpt lat="43.52406" lon="5.69893">
        <ele>343</ele>
        <time>2022-01-01T14:26:38Z</time>
      </trkpt>
      <trkpt lat="43.52429" lon="5.6989">
        <ele>344</ele>
        <time>2022-01-01T14:27:00Z</time>
      </trkpt>
      <trkpt lat="43.52453" lon="5.69886">
        <ele>346</ele>
        <time>2022-01-01T14:27:28Z</time>
      </trkpt>
      <trkpt lat="43.52475" lon="5.69886">
        <ele>347</ele>
        <time>2022-01-01T14:27:52Z</time>
      </trkpt>
      <trkpt lat="43.52498" lon="5.69891">
        <ele>347</ele>
        <time>2022-01-01T14:28:13Z</time>
      </trkpt>
      <trkpt lat="43.52519" lon="5.69905">
        <ele>347</ele>
        <time>2022-01-01T14:29:00Z</time>
      </trkpt>
      <trkpt lat="43.52541" lon="5.69915">
        <ele>348</ele>
        <time>2022-01-01T14:29:21Z</time>
      </trkpt>
      <trkpt lat="43.52561" lon="5.69931">
        <ele>348</ele>
        <time>2022-01-01T14:29:39Z</time>
      </trkpt>
      <trkpt lat="43.52582" lon="5.69944">
        <ele>349</ele>
        <time>2022-01-01T14:30:00Z</time>
      </trkpt>
      <trkpt lat="43.52605" lon="5.6995">
        <ele>351</ele>
        <time>2022-01-01T14:30:22Z</time>
      </trkpt>
      <trkpt lat="43.52627" lon="5.69955">
        <ele>353</ele>
        <time>2022-01-01T14:30:42Z</time>
      </trkpt>
      <trkpt lat="43.52651" lon="5.69957">
        <ele>355</ele>
        <time>2022-01-01T14:30:59Z</time>
      </trkpt>
      <trkpt lat="43.52667" lon="5.69934">
        <ele>356</ele>
        <time>2022-01-01T14:31:30Z</time>
      </trkpt>
      <trkpt lat="43.5267" lon="5.69902">
        <ele>357</ele>
        <time>2022-01-01T14:31:48Z</time>
      </trkpt>
      <trkpt lat="43.52675" lon="5.69871">
        <ele>358</ele>
        <time>2022-01-01T14:32:06Z</time>
      </trkpt>
      <trkpt lat="43.52676" lon="5.6984">
        <ele>358</ele>
        <time>2022-01-01T14:32:33Z</time>
      </trkpt>
      <trkpt lat="43.52674" lon="5.69808">
        <ele>357</ele>
        <time>2022-01-01T14:32:52Z</time>
      </trkpt>
      <trkpt lat="43.52679" lon="5.69778">
        <ele>358</ele>
        <time>2022-01-01T14:33:10Z</time>
      </trkpt>
      <trkpt lat="43.52692" lon="5.69751">
        <ele>359</ele>
        <time>2022-01-01T14:33:32Z</time>
      </trkpt>
      <trkpt lat="43.52702" lon="5.69722">
        <ele>361</ele>
        <time>2022-01-01T14:33:51Z</time>
      </trkpt>
      <trkpt lat="43.52711" lon="5.69693">
        <ele>363</ele>
        <time>2022-01-01T14:34:10Z</time>
      </trkpt>
      <trkpt lat="43.52716" lon="5.69661">
        <ele>363</ele>
        <time>2022-01-01T14:34:30Z</time>
      </trkpt>
      <trkpt lat="43.52722" lon="5.69631">
        <ele>364</ele>
        <time>2022-01-01T14:34:49Z</time>
      </trkpt>
      <trkpt lat="43.52729" lon="5.69601">
        <ele>364</ele>
        <time>2022-01-01T14:35:07Z</time>
      </trkpt>
      <trkpt lat="43.52738" lon="5.69572">
        <ele>364</ele>
        <time>2022-01-01T14:35:29Z</time>
      </trkpt>
      <trkpt lat="43.52745" lon="5.69541">
        <ele>364</ele>
        <time>2022-01-01T14:35:46Z</time>
      </trkpt>
      <trkpt lat="43.5275" lon="5.6951">
        <ele>363</ele>
        <time>2022-01-01T14:36:04Z</time>
      </trkpt>
      <trkpt lat="43.52756" lon="5.69479">
        <ele>364</ele>
        <time>2022-01-01T14:36:23Z</time>
      </trkpt>
      <trkpt lat="43.52749" lon="5.6945">
        <ele>362</ele>
        <time>2022-01-01T14:36:40Z</time>
      </trkpt>
      <trkpt lat="43.5275" lon="5.69417">
        <ele>363</ele>
        <time>2022-01-01T14:36:57Z</time>
      </trkpt>
      <trkpt lat="43.52753" lon="5.69386">
        <ele>364</ele>
        <time>2022-01-01T14:37:15Z</time>
      </trkpt>
      <trkpt lat="43.5276" lon="5.69355">
        <ele>364</ele>
        <time>2022-01-01T14:37:34Z</time>
      </trkpt>
      <trkpt lat="43.52766" lon="5.69325">
        <ele>364</ele>
        <time>2022-01-01T14:37:51Z</time>
      </trkpt>
      <trkpt lat="43.52753" lon="5.69298">
        <ele>362</ele>
        <time>2022-01-01T14:38:12Z</time>
      </trkpt>
      <trkpt lat="43.52746" lon="5.69269">
        <ele>362</ele>
        <time>2022-01-01T14:38:31Z</time>
      </trkpt>
      <trkpt lat="43.52746" lon="5.69236">
        <ele>363</ele>
        <time>2022-01-01T14:38:52Z</time>
      </trkpt>
      <trkpt lat="43.52753" lon="5.69207">
        <ele>365</ele>
        <time>2022-01-01T14:39:08Z</time>
      </trkpt>
      <trkpt lat="43.5275" lon="5.69175">
        <ele>365</ele>
        <time>2022-01-01T14:39:28Z</time>
      </trkpt>
      <trkpt lat="43.5274" lon="5.69145">
        <ele>363</ele>
        <time>2022-01-01T14:39:46Z</time>
      </trkpt>
      <trkpt lat="43.52728" lon="5.69118">
        <ele>362</ele>
        <time>2022-01-01T14:40:03Z</time>
      </trkpt>
      <trkpt lat="43.52725" lon="5.69087">
        <ele>363</ele>
        <time>2022-01-01T14:40:23Z</time>
      </trkpt>
      <trkpt lat="43.52721" lon="5.69056">
        <ele>363</ele>
        <time>2022-01-01T14:40:44Z</time>
      </trkpt>
      <trkpt lat="43.5271" lon="5.69029">
        <ele>362</ele>
        <time>2022-01-01T14:41:00Z</time>
      </trkpt>
      <trkpt lat="43.52693" lon="5.69007">
        <ele>362</ele>
        <time>2022-01-01T14:41:26Z</time>
      </trkpt>
      <trkpt lat="43.52687" lon="5.68976">
        <ele>361</ele>
        <time>2022-01-01T14:41:45Z</time>
      </trkpt>
      <trkpt lat="43.52685" lon="5.68945">
        <ele>360</ele>
        <time>2022-01-01T14:42:04Z</time>
      </trkpt>
      <trkpt lat="43.5268" lon="5.68914">
        <ele>359</ele>
        <time>2022-01-01T14:42:22Z</time>
      </trkpt>
      <trkpt lat="43.52678" lon="5.68883">
        <ele>357</ele>
        <time>2022-01-01T14:42:41Z</time>
      </trkpt>
      <trkpt lat="43.52674" lon="5.6885">
        <ele>356</ele>
        <time>2022-01-01T14:42:59Z</time>
      </trkpt>
      <trkpt lat="43.52672" lon="5.68819">
        <ele>355</ele>
        <time>2022-01-01T14:43:15Z</time>
      </trkpt>
      <trkpt lat="43.52667" lon="5.68787">
        <ele>354</ele>
        <time>2022-01-01T14:43:36Z</time>
      </trkpt>
      <trkpt lat="43.52658" lon="5.68759">
        <ele>353</ele>
        <time>2022-01-01T14:43:57Z</time>
      </trkpt>
      <trkpt lat="43.52644" lon="5.68732">
        <ele>353</ele>
        <time>2022-01-01T14:44:14Z</time>
      </trkpt>
      <trkpt lat="43.52631" lon="5.68705">
        <ele>352</ele>
        <time>2022-01-01T14:44:32Z</time>
      </trkpt>
      <trkpt lat="43.52619" lon="5.68678">
        <ele>353</ele>
        <time>2022-01-01T14:44:50Z</time>
      </trkpt>
      <trkpt lat="43.5261" lon="5.68648">
        <ele>355</ele>
        <time>2022-01-01T14:45:14Z</time>
      </trkpt>
      <trkpt lat="43.52608" lon="5.68616">
        <ele>357</ele>
        <time>2022-01-01T14:45:33Z</time>
      </trkpt>
      <trkpt lat="43.5261" lon="5.68584">
        <ele>360</ele>
        <time>2022-01-01T14:45:51Z</time>
      </trkpt>
      <trkpt lat="43.52616" lon="5.68554">
        <ele>361</ele>
        <time>2022-01-01T14:46:12Z</time>
      </trkpt>
      <trkpt lat="43.52622" lon="5.68523">
        <ele>362</ele>
        <time>2022-01-01T14:46:34Z</time>
      </trkpt>
      <trkpt lat="43.52631" lon="5.68495">
        <ele>362</ele>
        <time>2022-01-01T14:46:55Z</time>
      </trkpt>
      <trkpt lat="43.52638" lon="5.68465">
        <ele>363</ele>
        <time>2022-01-01T14:47:16Z</time>
      </trkpt>
      <trkpt lat="43.52644" lon="5.68433">
        <ele>364</ele>
        <time>2022-01-01T14:47:36Z</time>
      </trkpt>
      <trkpt lat="43.52649" lon="5.68402">
        <ele>364</ele>
        <time>2022-01-01T14:47:55Z</time>
      </trkpt>
      <trkpt lat="43.52648" lon="5.6837">
        <ele>365</ele>
        <time>2022-01-01T14:48:20Z</time>
      </trkpt>
      <trkpt lat="43.52645" lon="5.68338">
        <ele>366</ele>
        <time>2022-01-01T14:48:43Z</time>
      </trkpt>
      <trkpt lat="43.52639" lon="5.68307">
        <ele>366</ele>
        <time>2022-01-01T14:49:03Z</time>
      </trkpt>
      <trkpt lat="43.52646" lon="5.68277">
        <ele>368</ele>
        <time>2022-01-01T14:49:39Z</time>
      </trkpt>
      <trkpt lat="43.52657" lon="5.68248">
        <ele>369</ele>
        <time>2022-01-01T14:50:00Z</time>
      </trkpt>
      <trkpt lat="43.52669" lon="5.68222">
        <ele>369</ele>
        <time>2022-01-01T14:50:20Z</time>
      </trkpt>
      <trkpt lat="43.52683" lon="5.68197">
        <ele>370</ele>
        <time>2022-01-01T14:50:46Z</time>
      </trkpt>
      <trkpt lat="43.52688" lon="5.68166">
        <ele>371</ele>
        <time>2022-01-01T14:51:04Z</time>
      </trkpt>
      <trkpt lat="43.52689" lon="5.68134">
        <ele>371</ele>
        <time>2022-01-01T14:51:22Z</time>
      </trkpt>
      <trkpt lat="43.52678" lon="5.68106">
        <ele>369</ele>
        <time>2022-01-01T14:51:45Z</time>
      </trkpt>
      <trkpt lat="43.5268" lon="5.68074">
        <ele>369</ele>
        <time>2022-01-01T14:52:09Z</time>
      </trkpt>
      <trkpt lat="43.52694" lon="5.68049">
        <ele>371</ele>
        <time>2022-01-01T14:52:30Z</time>
      </trkpt>
      <trkpt lat="43.52702" lon="5.68019">
        <ele>373</ele>
        <time>2022-01-01T14:52:51Z</time>
      </trkpt>
      <trkpt lat="43.52723" lon="5.68006">
        <ele>376</ele>
        <time>2022-01-01T14:53:08Z</time>
      </trkpt>
      <trkpt lat="43.5274" lon="5.67984">
        <ele>380</ele>
        <time>2022-01-01T14:53:30Z</time>
      </trkpt>
      <trkpt lat="43.52739" lon="5.67953">
        <ele>380</ele>
        <time>2022-01-01T14:53:52Z</time>
      </trkpt>
      <trkpt lat="43.52742" lon="5.67921">
        <ele>380</ele>
        <time>2022-01-01T14:54:12Z</time>
      </trkpt>
      <trkpt lat="43.52731" lon="5.67892">
        <ele>378</ele>
        <time>2022-01-01T14:54:32Z</time>
      </trkpt>
      <trkpt lat="43.52711" lon="5.67874">
        <ele>376</ele>
        <time>2022-01-01T14:54:51Z</time>
      </trkpt>
      <trkpt lat="43.5269" lon="5.67861">
        <ele>377</ele>
        <time>2022-01-01T14:55:18Z</time>
      </trkpt>
      <trkpt lat="43.52667" lon="5.67853">
        <ele>377</ele>
        <time>2022-01-01T14:55:44Z</time>
      </trkpt>
      <trkpt lat="43.52659" lon="5.67824">
        <ele>379</ele>
        <time>2022-01-01T14:56:10Z</time>
      </trkpt>
      <trkpt lat="43.52657" lon="5.67793">
        <ele>382</ele>
        <time>2022-01-01T14:56:29Z</time>
      </trkpt>
      <trkpt lat="43.52657" lon="5.67761">
        <ele>383</ele>
        <time>2022-01-01T14:56:50Z</time>
      </trkpt>
      <trkpt lat="43.52653" lon="5.6773">
        <ele>382</ele>
        <time>2022-01-01T14:57:16Z</time>
      </trkpt>
      <trkpt lat="43.52648" lon="5.67699">
        <ele>379</ele>
        <time>2022-01-01T14:57:41Z</time>
      </trkpt>
      <trkpt lat="43.52648" lon="5.67667">
        <ele>377</ele>
        <time>2022-01-01T14:58:03Z</time>
      </trkpt>
      <trkpt lat="43.52644" lon="5.67635">
        <ele>373</ele>
        <time>2022-01-01T14:58:22Z</time>
      </trkpt>
      <trkpt lat="43.52642" lon="5.67602">
        <ele>369</ele>
        <time>2022-01-01T14:58:42Z</time>
      </trkpt>
      <trkpt lat="43.52635" lon="5.67572">
        <ele>367</ele>
        <time>2022-01-01T14:59:02Z</time>
      </trkpt>
      <trkpt lat="43.52629" lon="5.67542">
        <ele>366</ele>
        <time>2022-01-01T14:59:32Z</time>
      </trkpt>
      <trkpt lat="43.52625" lon="5.6751">
        <ele>368</ele>
        <time>2022-01-01T15:00:08Z</time>
      </trkpt>
      <trkpt lat="43.52608" lon="5.67489">
        <ele>368</ele>
        <time>2022-01-01T15:00:47Z</time>
      </trkpt>
      <trkpt lat="43.52588" lon="5.67504">
        <ele>364</ele>
        <time>2022-01-01T15:01:07Z</time>
      </trkpt>
      <trkpt lat="43.52571" lon="5.67482">
        <ele>363</ele>
        <time>2022-01-01T15:01:41Z</time>
      </trkpt>
      <trkpt lat="43.5257" lon="5.67451">
        <ele>364</ele>
        <time>2022-01-01T15:02:05Z</time>
      </trkpt>
      <trkpt lat="43.5258" lon="5.67423">
        <ele>364</ele>
        <time>2022-01-01T15:02:24Z</time>
      </trkpt>
      <trkpt lat="43.52589" lon="5.67393">
        <ele>363</ele>
        <time>2022-01-01T15:02:43Z</time>
      </trkpt>
      <trkpt lat="43.52595" lon="5.67362">
        <ele>358</ele>
        <time>2022-01-01T15:03:01Z</time>
      </trkpt>
      <trkpt lat="43.52583" lon="5.67336">
        <ele>354</ele>
        <time>2022-01-01T15:03:33Z</time>
      </trkpt>
      <trkpt lat="43.52576" lon="5.67306">
        <ele>354</ele>
        <time>2022-01-01T15:03:51Z</time>
      </trkpt>
      <trkpt lat="43.52566" lon="5.67278">
        <ele>353</ele>
        <time>2022-01-01T15:04:11Z</time>
      </trkpt>
      <trkpt lat="43.52553" lon="5.67252">
        <ele>351</ele>
        <time>2022-01-01T15:04:33Z</time>
      </trkpt>
      <trkpt lat="43.52537" lon="5.67228">
        <ele>349</ele>
        <time>2022-01-01T15:04:56Z</time>
      </trkpt>
      <trkpt lat="43.52522" lon="5.67203">
        <ele>347</ele>
        <time>2022-01-01T15:05:16Z</time>
      </trkpt>
      <trkpt lat="43.52507" lon="5.67179">
        <ele>345</ele>
        <time>2022-01-01T15:05:34Z</time>
      </trkpt>
      <trkpt lat="43.52452" lon="5.67187">
        <ele>340</ele>
        <time>2022-01-01T15:05:57Z</time>
      </trkpt>
    </trkseg>
  </trk>
</gpx>